Time;durP1;ratioP1;P1;durP2;ratioP2;P2;SDS_P1;SDS_P2;PMS_P1;PMS_P2;Temp;Humidity;BMP_temperature;BMP_pressure;BME280_temperature;BME280_humidity;BME280_pressure;Samples;Min_cycle;Max_cycle;Signal;HPM_P1;HPM_P2
2022/07/10 00:01:24;;;;;;;7.07;4.70;;;17.30;99.90;;;;;;5023791;28;20209;-86
2022/07/10 00:03:51;;;;;;;6.10;4.90;;;17.90;99.90;;;;;;5020903;28;20561;-84
2022/07/10 00:06:30;;;;;;;5.60;5.10;;;17.40;99.90;;;;;;5020010;28;20189;-85
2022/07/10 00:08:56;;;;;;;4.83;4.37;;;17.30;99.90;;;;;;5019577;28;20985;-84
2022/07/10 00:11:21;;;;;;;5.63;4.70;;;17.20;99.90;;;;;;5027474;28;20464;-85
2022/07/10 00:13:47;;;;;;;6.33;4.63;;;17.10;99.90;;;;;;5038482;28;20448;-84
2022/07/10 00:16:12;;;;;;;7.53;5.50;;;17.10;99.90;;;;;;5038083;28;20674;-85
2022/07/10 00:18:38;;;;;;;5.50;4.90;;;17.00;99.90;;;;;;5038450;28;20196;-84
2022/07/10 00:21:04;;;;;;;5.77;5.17;;;16.90;99.90;;;;;;5039718;28;20174;-86
2022/07/10 00:23:29;;;;;;;10.63;5.03;;;16.90;99.90;;;;;;5038454;28;20296;-85
2022/07/10 00:25:55;;;;;;;7.97;5.37;;;16.90;99.90;;;;;;5037752;28;20184;-87
2022/07/10 00:28:20;;;;;;;10.33;6.03;;;16.80;99.90;;;;;;5035728;28;20180;-85
2022/07/10 00:30:46;;;;;;;8.83;5.50;;;16.90;99.90;;;;;;5033338;28;20475;-85
2022/07/10 00:33:11;;;;;;;8.30;6.37;;;16.70;99.90;;;;;;5036398;28;20206;-86
2022/07/10 00:35:40;;;;;;;12.30;6.60;;;16.60;99.90;;;;;;5034382;28;20213;-86
2022/07/10 00:38:05;;;;;;;6.87;6.13;;;16.50;99.90;;;;;;5032972;28;20178;-85
2022/07/10 00:40:31;;;;;;;7.47;6.67;;;16.60;99.90;;;;;;5037150;28;21038;-86
2022/07/10 00:42:57;;;;;;;7.43;6.23;;;16.60;99.90;;;;;;5040540;28;20213;-86
2022/07/10 00:45:22;;;;;;;9.70;7.80;;;16.50;99.90;;;;;;5035055;28;20750;-86
2022/07/10 00:47:48;;;;;;;9.43;8.00;;;;;;;;;;5032794;28;20182;-86
2022/07/10 00:50:14;;;;;;;8.20;7.00;;;16.50;99.90;;;;;;5037297;28;20189;-86
2022/07/10 00:52:46;;;;;;;9.73;8.73;;;16.50;99.90;;;;;;5037632;28;20995;-86
2022/07/10 00:55:13;;;;;;;8.87;6.40;;;16.50;99.90;;;;;;5036515;28;20182;-86
2022/07/10 00:57:40;;;;;;;7.93;6.97;;;16.40;99.90;;;;;;5025369;28;20421;-86
2022/07/10 01:00:06;;;;;;;8.17;6.97;;;16.30;99.90;;;;;;5004257;28;1026349;-84
2022/07/10 01:02:32;;;;;;;11.43;6.80;;;16.30;99.90;;;;;;5032309;28;20433;-84
2022/07/10 01:04:58;;;;;;;11.00;8.13;;;16.20;99.90;;;;;;5027308;28;20618;-84
2022/07/10 01:07:23;;;;;;;9.90;8.40;;;16.20;99.90;;;;;;5021566;28;20328;-82
2022/07/10 01:09:49;;;;;;;11.73;7.90;;;16.10;99.90;;;;;;5021733;28;20735;-85
2022/07/10 01:12:16;;;;;;;10.53;8.63;;;16.10;99.90;;;;;;5025771;28;20558;-84
2022/07/10 01:14:41;;;;;;;10.47;8.10;;;16.10;99.90;;;;;;5026798;28;20201;-85
2022/07/10 01:17:09;;;;;;;11.60;9.73;;;16.10;99.90;;;;;;5028957;28;20468;-86
2022/07/10 01:19:34;;;;;;;11.73;9.67;;;16.00;99.90;;;;;;5027679;28;20173;-83
2022/07/10 01:22:00;;;;;;;12.07;10.87;;;16.00;99.90;;;;;;5025196;28;20452;-83
2022/07/10 01:24:25;;;;;;;13.10;11.10;;;15.90;99.90;;;;;;5024465;28;20198;-84
2022/07/10 01:26:52;;;;;;;14.47;12.47;;;15.90;99.90;;;;;;5024685;28;20314;-85
2022/07/10 01:29:17;;;;;;;14.10;11.57;;;15.90;99.90;;;;;;5026143;28;20232;-85
2022/07/10 01:31:43;;;;;;;15.27;13.00;;;15.90;99.90;;;;;;5028459;28;20445;-84
2022/07/10 01:34:09;;;;;;;14.67;12.67;;;15.90;99.90;;;;;;5024571;28;20284;-84
2022/07/10 01:36:35;;;;;;;17.98;12.40;;;15.90;99.90;;;;;;5016904;28;21079;-82
2022/07/10 01:39:01;;;;;;;16.30;13.57;;;15.80;99.90;;;;;;5020762;28;20270;-83
2022/07/10 01:41:27;;;;;;;16.50;12.33;;;15.90;99.90;;;;;;5022757;28;20524;-83
2022/07/10 01:43:53;;;;;;;17.87;13.87;;;15.80;99.90;;;;;;5024430;28;20456;-84
2022/07/10 01:46:19;;;;;;;19.13;15.27;;;15.80;99.90;;;;;;5028215;28;20205;-83
2022/07/10 01:48:45;;;;;;;19.10;15.73;;;15.80;99.90;;;;;;5019447;28;20433;-82
2022/07/10 01:51:12;;;;;;;21.37;16.70;;;15.80;99.90;;;;;;5021617;28;20968;-85
2022/07/10 01:53:38;;;;;;;19.80;15.03;;;15.80;99.90;;;;;;5021248;28;20456;-84
2022/07/10 01:56:07;;;;;;;17.43;14.30;;;15.80;99.90;;;;;;5025453;28;20468;-84
2022/07/10 01:58:33;;;;;;;17.20;15.33;;;15.80;99.90;;;;;;5022239;28;20437;-84
2022/07/10 02:00:59;;;;;;;18.47;14.53;;;15.70;99.90;;;;;;5018053;28;20467;-82
2022/07/10 02:06:08;;;;;;;22.52;16.15;;;15.50;99.90;;;;;;5020853;28;21148;-83
2022/07/10 02:08:34;;;;;;;22.30;15.63;;;15.70;99.90;;;;;;5014846;28;20198;-81
2022/07/10 02:10:59;;;;;;;22.20;16.37;;;15.50;99.90;;;;;;5017106;28;20196;-83
2022/07/10 02:13:27;;;;;;;20.07;17.17;;;15.40;99.90;;;;;;5013786;28;20206;-83
2022/07/10 02:15:56;;;;;;;20.50;15.83;;;15.40;99.90;;;;;;5015490;28;20209;-82
2022/07/10 02:18:22;;;;;;;24.80;17.60;;;15.30;99.90;;;;;;5020964;28;20506;-82
2022/07/10 02:20:48;;;;;;;23.40;17.87;;;15.20;99.90;;;;;;5022051;28;20449;-81
2022/07/10 02:23:13;;;;;;;20.70;17.63;;;15.10;99.90;;;;;;5019431;28;20452;-82
2022/07/10 02:25:39;;;;;;;18.77;16.57;;;15.10;99.90;;;;;;5024958;28;20197;-85
2022/07/10 02:28:05;;;;;;;22.57;18.20;;;15.00;99.90;;;;;;5022312;28;20205;-83
2022/07/10 02:30:31;;;;;;;22.83;17.00;;;15.00;99.90;;;;;;5020670;28;20297;-84
2022/07/10 02:32:57;;;;;;;20.80;15.85;;;15.00;99.90;;;;;;5019483;28;20202;-84
2022/07/10 02:35:22;;;;;;;19.60;16.67;;;15.10;99.90;;;;;;5018764;28;20191;-83
2022/07/10 02:37:48;;;;;;;24.53;16.20;;;15.10;99.90;;;;;;5018600;28;20681;-83
2022/07/10 02:40:14;;;;;;;18.83;15.30;;;15.20;99.90;;;;;;5017772;28;20259;-84
2022/07/10 02:42:40;;;;;;;23.80;15.93;;;15.20;99.90;;;;;;5019830;28;20179;-85
2022/07/10 02:45:06;;;;;;;22.37;15.97;;;15.30;99.90;;;;;;5019975;28;20986;-83
2022/07/10 02:47:32;;;;;;;23.20;16.37;;;15.30;99.90;;;;;;5019395;28;20467;-83
2022/07/10 02:49:57;;;;;;;23.03;16.07;;;15.40;99.90;;;;;;5019913;28;20445;-83
2022/07/10 02:52:23;;;;;;;21.27;15.30;;;15.40;99.90;;;;;;5016737;28;20182;-83
2022/07/10 02:54:50;;;;;;;16.43;13.30;;;15.40;99.90;;;;;;5014214;28;20190;-84
2022/07/10 02:57:16;;;;;;;16.33;13.30;;;15.40;99.90;;;;;;5020905;28;20199;-81
2022/07/10 02:59:41;;;;;;;21.47;15.10;;;15.40;99.90;;;;;;5019017;28;20457;-83
2022/07/10 03:02:07;;;;;;;16.33;12.80;;;15.40;99.90;;;;;;5018095;28;20190;-82
2022/07/10 03:04:33;;;;;;;18.50;14.00;;;15.30;99.90;;;;;;5021955;28;20213;-81
2022/07/10 03:06:58;;;;;;;17.40;12.60;;;15.40;99.90;;;;;;5019923;28;20204;-84
2022/07/10 03:09:25;;;;;;;16.23;12.60;;;15.40;99.90;;;;;;5023541;28;20216;-81
2022/07/10 03:11:51;;;;;;;15.97;12.03;;;15.30;99.90;;;;;;5021333;28;20182;-80
2022/07/10 03:14:17;;;;;;;15.80;12.17;;;15.30;99.90;;;;;;5020805;28;20468;-84
2022/07/10 03:16:43;;;;;;;14.33;12.90;;;15.30;99.90;;;;;;5018127;28;20465;-82
2022/07/10 03:19:08;;;;;;;13.93;12.03;;;15.30;99.90;;;;;;5019239;28;20472;-82
2022/07/10 03:21:35;;;;;;;17.83;11.33;;;15.30;99.90;;;;;;5021566;28;20486;-84
2022/07/10 03:24:01;;;;;;;13.90;11.52;;;15.30;99.90;;;;;;5024662;28;20225;-85
2022/07/10 03:26:29;;;;;;;15.20;13.30;;;15.40;99.90;;;;;;5024959;28;20230;-86
2022/07/10 03:28:55;;;;;;;17.57;12.60;;;15.50;99.90;;;;;;5030105;28;20265;-83
2022/07/10 03:31:20;;;;;;;14.23;10.20;;;15.50;99.90;;;;;;5026834;28;20465;-85
2022/07/10 03:33:46;;;;;;;14.60;9.83;;;15.50;99.90;;;;;;5029693;28;20486;-83
2022/07/10 03:36:13;;;;;;;11.03;8.40;;;15.50;99.90;;;;;;5028338;28;20202;-85
2022/07/10 03:38:38;;;;;;;13.77;7.80;;;15.60;99.90;;;;;;5043009;23;20225;-82
2022/07/10 03:41:04;;;;;;;8.93;7.50;;;15.70;99.90;;;;;;5035011;28;20859;-82
2022/07/10 03:43:30;;;;;;;8.13;6.07;;;15.90;99.90;;;;;;5042133;28;20757;-81
2022/07/10 03:45:57;;;;;;;9.03;6.33;;;16.20;99.90;;;;;;5035328;28;20185;-81
2022/07/10 03:48:22;;;;;;;7.33;5.93;;;16.40;99.90;;;;;;5034098;28;20200;-81
2022/07/10 03:50:51;;;;;;;19.00;6.00;;;16.50;99.90;;;;;;5034564;28;20436;-82
2022/07/10 03:53:17;;;;;;;7.30;5.53;;;16.70;99.90;;;;;;5035885;28;20279;-82
2022/07/10 03:55:42;;;;;;;6.33;5.63;;;16.80;99.90;;;;;;5036857;28;20459;-82
2022/07/10 03:58:08;;;;;;;6.23;5.67;;;16.70;99.90;;;;;;5037112;28;20449;-82
2022/07/10 04:00:35;;;;;;;6.40;4.83;;;16.70;99.90;;;;;;5032243;28;20177;-82
2022/07/10 04:03:02;;;;;;;7.67;5.37;;;16.60;99.90;;;;;;5035722;28;20189;-83
2022/07/10 04:05:28;;;;;;;6.90;5.67;;;16.70;99.90;;;;;;5036022;28;21023;-82
2022/07/10 04:07:56;;;;;;;7.40;6.00;;;16.60;99.90;;;;;;5037724;28;20565;-83
2022/07/10 04:10:22;;;;;;;9.03;6.17;;;16.50;99.90;;;;;;5034713;28;20478;-82
2022/07/10 04:12:49;;;;;;;7.90;6.13;;;16.50;99.90;;;;;;5036962;28;20788;-82
2022/07/10 04:15:14;;;;;;;6.20;5.40;;;16.40;99.90;;;;;;5035811;28;20435;-82
2022/07/10 04:17:40;;;;;;;11.17;4.60;;;16.30;99.90;;;;;;5035126;28;20463;-82
2022/07/10 04:20:06;;;;;;;8.00;5.27;;;16.20;99.90;;;;;;5034865;28;21039;-81
2022/07/10 04:22:32;;;;;;;7.40;4.90;;;16.20;99.90;;;;;;5034897;28;20182;-81
2022/07/10 04:24:57;;;;;;;6.37;5.03;;;16.20;99.90;;;;;;5034577;28;21147;-82
2022/07/10 04:27:23;;;;;;;12.20;5.60;;;16.40;99.90;;;;;;5037041;28;20186;-82
2022/07/10 04:29:49;;;;;;;5.27;4.83;;;16.50;99.90;;;;;;5036453;28;20232;-82
2022/07/10 04:32:15;;;;;;;8.07;4.63;;;16.60;99.90;;;;;;5043607;28;20177;-81
2022/07/10 04:34:41;;;;;;;5.93;4.67;;;16.60;99.90;;;;;;5035251;28;20526;-82
2022/07/10 04:37:09;;;;;;;5.07;4.57;;;16.60;99.90;;;;;;5035190;28;21697;-81
2022/07/10 04:39:37;;;;;;;5.77;3.80;;;16.60;99.90;;;;;;5033654;28;20241;-82
2022/07/10 04:42:03;;;;;;;5.40;4.90;;;16.70;99.90;;;;;;5035896;28;20431;-82
2022/07/10 04:44:29;;;;;;;5.47;4.53;;;16.90;99.90;;;;;;5033669;28;20559;-82
2022/07/10 04:46:55;;;;;;;10.50;5.10;;;17.00;99.90;;;;;;5046975;28;21023;-80
2022/07/10 04:49:20;;;;;;;9.67;5.07;;;17.00;99.90;;;;;;5040084;28;20282;-82
2022/07/10 04:51:46;;;;;;;6.97;4.33;;;16.90;99.90;;;;;;5039539;28;20307;-81
2022/07/10 04:54:11;;;;;;;6.13;4.93;;;16.80;99.90;;;;;;5035514;28;20208;-81
2022/07/10 04:56:37;;;;;;;6.30;4.83;;;17.10;99.90;;;;;;5035122;28;20212;-80
2022/07/10 04:59:03;;;;;;;7.43;4.97;;;17.30;99.90;;;;;;5036128;28;20264;-81
2022/07/10 05:01:28;;;;;;;7.40;4.10;;;17.40;99.90;;;;;;5035876;28;20273;-81
2022/07/10 05:03:54;;;;;;;8.60;5.80;;;17.60;99.90;;;;;;5036259;28;20560;-80
2022/07/10 05:06:20;;;;;;;6.07;3.80;;;17.70;99.90;;;;;;5034216;28;20219;-80
2022/07/10 05:08:45;;;;;;;5.13;4.60;;;17.90;99.90;;;;;;5031950;28;20940;-80
2022/07/10 05:11:11;;;;;;;5.10;3.60;;;18.10;99.90;;;;;;5033745;28;20189;-80
2022/07/10 05:13:37;;;;;;;6.53;3.50;;;17.60;99.90;;;;;;5031469;28;20277;-82
2022/07/10 05:16:06;;;;;;;10.20;3.90;;;17.90;99.90;;;;;;5040306;28;20197;-81
2022/07/10 05:18:32;;;;;;;4.43;3.30;;;18.10;99.90;;;;;;5034848;28;20486;-81
2022/07/10 05:20:57;;;;;;;6.40;3.67;;;17.90;99.90;;;;;;5034265;28;20479;-83
2022/07/10 05:23:23;;;;;;;3.73;3.20;;;17.40;99.90;;;;;;5037922;28;20189;-82
2022/07/10 05:25:49;;;;;;;3.57;2.70;;;17.30;99.90;;;;;;5034297;28;20236;-80
2022/07/10 05:28:15;;;;;;;7.30;3.53;;;18.60;99.90;;;;;;5036785;28;20440;-80
2022/07/10 05:30:41;;;;;;;4.40;3.30;;;17.60;99.90;;;;;;5032935;28;20548;-80
2022/07/10 05:33:07;;;;;;;4.70;3.23;;;17.90;99.90;;;;;;5032453;28;20192;-80
2022/07/10 05:35:33;;;;;;;7.13;3.40;;;18.20;99.90;;;;;;5034319;28;20434;-80
2022/07/10 05:37:59;;;;;;;2.80;2.60;;;18.30;99.90;;;;;;5031245;28;20173;-80
2022/07/10 05:40:25;;;;;;;4.47;2.70;;;18.30;99.90;;;;;;5034962;28;20243;-80
2022/07/10 05:42:51;;;;;;;6.13;3.13;;;18.50;99.90;;;;;;5031220;28;21133;-80
2022/07/10 05:45:17;;;;;;;5.10;2.93;;;18.60;99.90;;;;;;5033373;28;20442;-80
2022/07/10 05:47:44;;;;;;;6.33;2.50;;;18.60;99.90;;;;;;5033999;28;20186;-80
2022/07/10 05:50:11;;;;;;;7.57;2.73;;;;;;;;;;5034705;28;20463;-80
2022/07/10 05:52:37;;;;;;;2.33;2.00;;;18.90;99.90;;;;;;5038245;28;21004;-80
2022/07/10 05:55:03;;;;;;;3.20;2.73;;;18.80;99.90;;;;;;5036719;28;20444;-81
2022/07/10 05:57:31;;;;;;;6.67;2.17;;;18.90;99.90;;;;;;5030321;28;20571;-81
2022/07/10 05:59:57;;;;;;;9.57;3.10;;;19.10;99.90;;;;;;5031158;28;20464;-81
2022/07/10 06:02:22;;;;;;;3.80;2.10;;;20.20;99.90;;;;;;5027819;28;20465;-80
2022/07/10 06:04:49;;;;;;;3.33;1.97;;;20.70;99.90;;;;;;5023386;28;20923;-80
2022/07/10 06:07:14;;;;;;;6.23;2.47;;;20.60;99.90;;;;;;5031784;28;20188;-80
2022/07/10 06:09:40;;;;;;;2.00;1.80;;;20.00;99.90;;;;;;5020343;28;20913;-80
2022/07/10 06:12:06;;;;;;;2.27;1.73;;;19.70;99.90;;;;;;5024405;28;21524;-80
2022/07/10 06:14:31;;;;;;;6.07;2.00;;;19.40;99.90;;;;;;5031944;28;20190;-81
2022/07/10 06:16:57;;;;;;;8.57;1.93;;;;;;;;;;5027700;28;20227;-80
2022/07/10 06:19:23;;;;;;;3.70;1.80;;;19.40;99.90;;;;;;5032543;28;20206;-80
2022/07/10 06:22:29;;;;;;;6.73;2.00;;;19.30;99.90;;;;;;5032316;28;20455;-80
2022/07/10 06:24:34;;;;;;;4.90;2.10;;;19.40;99.90;;;;;;5031420;28;20263;-80
2022/07/10 06:26:59;;;;;;;4.83;2.43;;;20.10;99.90;;;;;;5040532;28;20423;-81
2022/07/10 06:29:25;;;;;;;1.50;1.37;;;20.10;99.90;;;;;;5031906;28;20217;-81
2022/07/10 06:31:51;;;;;;;3.53;1.50;;;20.90;99.90;;;;;;5035237;28;20185;-80
2022/07/10 06:34:16;;;;;;;2.57;1.50;;;22.20;99.90;;;;;;5038274;28;20170;-80
2022/07/10 06:36:42;;;;;;;3.87;1.90;;;21.80;99.90;;;;;;5037009;28;21347;-80
2022/07/10 06:39:07;;;;;;;9.93;1.53;;;21.30;99.90;;;;;;5035889;28;20217;-81
2022/07/10 06:41:33;;;;;;;2.30;1.23;;;21.10;99.90;;;;;;5031069;28;20185;-81
2022/07/10 06:44:00;;;;;;;5.10;2.00;;;21.40;99.90;;;;;;5032230;28;20660;-81
2022/07/10 06:46:26;;;;;;;1.90;1.37;;;21.90;99.90;;;;;;5035908;28;20189;-81
2022/07/10 06:48:52;;;;;;;4.63;1.80;;;23.40;99.90;;;;;;5034833;28;20621;-81
2022/07/10 06:51:18;;;;;;;3.33;1.63;;;25.30;99.90;;;;;;5035624;28;20207;-81
2022/07/10 06:53:43;;;;;;;1.30;0.90;;;26.60;98.60;;;;;;5035399;28;20428;-81
2022/07/10 06:56:09;;;;;;;2.27;1.53;;;26.10;95.70;;;;;;5034218;28;20209;-81
2022/07/10 06:58:35;;;;;;;4.40;1.60;;;24.00;95.60;;;;;;5035358;28;20200;-81
2022/07/10 07:01:00;;;;;;;3.30;1.40;;;22.40;99.40;;;;;;5031354;28;20170;-80
2022/07/10 07:03:26;;;;;;;2.90;1.40;;;21.30;99.90;;;;;;5043191;28;20295;-81
2022/07/10 07:05:51;;;;;;;6.27;1.27;;;20.30;99.90;;;;;;5036513;28;20436;-81
2022/07/10 07:08:17;;;;;;;1.23;1.00;;;19.40;99.90;;;;;;5035956;28;20269;-81
2022/07/10 07:10:44;;;;;;;2.43;1.20;;;19.40;99.90;;;;;;5036021;28;20193;-81
2022/07/10 07:13:09;;;;;;;2.60;1.30;;;19.50;99.90;;;;;;5034701;28;20181;-81
2022/07/10 07:15:38;;;;;;;2.40;1.20;;;19.70;99.90;;;;;;5033773;28;20447;-80
2022/07/10 07:18:12;;;;;;;1.90;0.83;;;20.70;99.90;;;;;;5038984;28;20177;-80
2022/07/10 07:23:23;;;;;;;3.43;0.80;;;20.80;99.90;;;;;;5035625;28;20475;-80
2022/07/10 07:25:48;;;;;;;2.30;1.60;;;20.80;99.90;;;;;;5037672;28;20442;-80
2022/07/10 07:28:15;;;;;;;1.50;1.00;;;20.40;99.90;;;;;;5035918;28;20440;-82
2022/07/10 07:30:42;;;;;;;2.40;1.20;;;20.40;99.90;;;;;;5037469;28;20272;-80
2022/07/10 07:33:08;;;;;;;1.73;1.00;;;20.50;99.90;;;;;;5038512;28;20443;-80
2022/07/10 07:35:34;;;;;;;1.33;1.13;;;20.70;99.90;;;;;;5038278;28;20448;-80
2022/07/10 07:38:01;;;;;;;1.63;1.20;;;20.60;99.90;;;;;;5037123;28;20193;-79
2022/07/10 07:40:27;;;;;;;4.83;1.20;;;20.30;99.90;;;;;;5051422;28;20468;-79
2022/07/10 07:42:54;;;;;;;1.60;1.17;;;20.10;99.90;;;;;;5034759;28;20438;-80
2022/07/10 07:45:21;;;;;;;6.87;1.30;;;19.70;99.90;;;;;;5036223;28;20177;-80
2022/07/10 07:47:59;;;;;;;1.00;0.70;;;20.00;99.90;;;;;;5034265;28;20445;-80
2022/07/10 07:50:27;;;;;;;1.70;1.07;;;20.20;99.90;;;;;;5040916;28;20499;-80
2022/07/10 07:52:53;;;;;;;2.27;0.70;;;20.20;99.90;;;;;;5034798;28;21274;-80
2022/07/10 07:55:19;;;;;;;2.47;1.00;;;20.10;99.90;;;;;;5034643;28;20835;-80
2022/07/10 07:57:46;;;;;;;2.50;1.23;;;20.30;99.90;;;;;;5033437;28;21626;-80
2022/07/10 08:00:13;;;;;;;1.10;0.90;;;20.40;99.90;;;;;;5030252;28;23670;-80
2022/07/10 08:02:40;;;;;;;3.00;0.73;;;20.40;99.90;;;;;;5042224;28;20431;-80
2022/07/10 08:05:06;;;;;;;2.30;0.90;;;20.80;99.90;;;;;;5037308;28;20432;-80
2022/07/10 08:07:39;;;;;;;2.83;1.07;;;21.00;99.90;;;;;;5036775;28;20440;-80
2022/07/10 08:10:08;;;;;;;2.20;0.90;;;20.90;99.90;;;;;;5034493;28;20461;-81
2022/07/10 08:12:33;;;;;;;4.30;0.80;;;21.10;99.90;;;;;;5036572;28;20547;-78
2022/07/10 08:14:59;;;;;;;2.40;0.73;;;21.60;99.90;;;;;;5037297;28;20500;-79
2022/07/10 08:17:25;;;;;;;2.10;1.00;;;23.10;95.60;;;;;;5033125;28;20212;-79
2022/07/10 08:19:51;;;;;;;1.80;1.00;;;24.40;95.90;;;;;;5036857;28;20540;-82
2022/07/10 08:22:17;;;;;;;1.83;0.70;;;24.80;91.30;;;;;;5034813;28;20436;-78
2022/07/10 08:24:42;;;;;;;1.53;0.70;;;23.90;91.60;;;;;;5037837;28;20607;-81
2022/07/10 08:27:08;;;;;;;1.63;0.87;;;23.60;91.80;;;;;;5032666;28;20629;-81
2022/07/10 08:29:34;;;;;;;0.83;0.73;;;23.70;91.90;;;;;;5032014;28;20219;-78
2022/07/10 08:31:59;;;;;;;1.17;1.07;;;23.30;91.20;;;;;;5034867;28;20303;-80
2022/07/10 08:34:25;;;;;;;0.70;0.50;;;23.50;91.80;;;;;;5036185;28;20242;-80
2022/07/10 08:36:51;;;;;;;2.63;0.73;;;22.00;90.80;;;;;;5039053;28;20212;-80
2022/07/10 08:39:20;;;;;;;0.80;0.70;;;21.60;92.60;;;;;;5033634;28;21371;-81
2022/07/10 08:41:49;;;;;;;4.30;1.03;;;22.00;94.80;;;;;;5032235;28;20252;-80
2022/07/10 08:44:16;;;;;;;3.07;0.90;;;21.20;94.50;;;;;;5032557;28;20514;-81
2022/07/10 08:46:42;;;;;;;2.23;0.90;;;21.10;95.20;;;;;;5035534;28;20563;-83
2022/07/10 08:49:10;;;;;;;1.13;1.03;;;21.00;94.90;;;;;;5035115;28;20459;-82
2022/07/10 08:51:56;;;;;;;0.80;0.77;;;21.50;95.50;;;;;;5035472;28;20608;-83
2022/07/10 08:54:22;;;;;;;1.67;0.90;;;21.50;93.90;;;;;;5036263;28;20440;-81
2022/07/10 08:56:48;;;;;;;1.10;0.80;;;21.00;93.90;;;;;;5032851;28;20455;-81
2022/07/10 08:59:14;;;;;;;2.97;1.00;;;21.10;93.10;;;;;;5033737;28;20874;-82
2022/07/10 09:01:40;;;;;;;2.37;1.30;;;21.00;93.70;;;;;;5038283;28;20189;-81
2022/07/10 09:04:06;;;;;;;4.90;0.93;;;20.30;94.40;;;;;;5037993;28;20436;-81
2022/07/10 09:06:31;;;;;;;1.47;0.80;;;20.20;94.80;;;;;;5041668;28;20185;-82
2022/07/10 09:09:05;;;;;;;1.67;1.07;;;20.60;95.40;;;;;;5054400;28;20197;-81
2022/07/10 09:11:33;;;;;;;0.90;0.70;;;20.60;95.40;;;;;;5039447;28;20978;-81
2022/07/10 09:14:04;;;;;;;1.93;1.20;;;20.30;95.40;;;;;;5038083;28;20787;-81
2022/07/10 09:16:34;;;;;;;0.70;0.60;;;20.30;95.50;;;;;;5035151;28;20513;-79
2022/07/10 09:19:20;;;;;;;2.43;1.10;;;20.70;95.50;;;;;;5037134;28;20451;-80
2022/07/10 09:21:48;;;;;;;4.80;1.17;;;20.30;94.80;;;;;;5040899;28;20431;-81
2022/07/10 09:24:17;;;;;;;6.83;1.20;;;19.90;96.10;;;;;;5040650;28;22251;-84
2022/07/10 09:26:42;;;;;;;1.57;1.10;;;19.80;96.50;;;;;;5038300;28;20443;-84
2022/07/10 09:29:10;;;;;;;1.63;0.90;;;19.60;98.20;;;;;;5036735;28;20456;-83
2022/07/10 09:31:53;;;;;;;1.17;1.03;;;19.60;98.70;;;;;;5039290;28;20474;-82
2022/07/10 09:34:44;;;;;;;4.20;1.30;;;19.80;99.90;;;;;;5041957;28;20431;-82
2022/07/10 09:37:24;;;;;;;2.93;1.00;;;19.80;99.80;;;;;;5040002;28;20471;-82
2022/07/10 09:39:59;;;;;;;1.10;1.00;;;20.70;99.80;;;;;;5035324;22;20521;-83
2022/07/10 09:42:39;;;;;;;4.07;1.30;;;20.40;99.20;;;;;;5020386;28;20459;-82
2022/07/10 09:45:17;;;;;;;1.27;0.80;;;20.60;99.90;;;;;;5012228;28;20443;-80
2022/07/10 09:47:52;;;;;;;8.60;1.13;;;21.90;98.10;;;;;;5009367;28;20772;-78
2022/07/10 09:50:27;;;;;;;2.90;1.00;;;22.70;96.50;;;;;;5006635;28;20460;-78
2022/07/10 09:53:04;;;;;;;4.53;1.27;;;25.00;90.30;;;;;;5011623;28;20891;-82
2022/07/10 09:55:34;;;;;;;3.43;1.53;;;25.10;90.60;;;;;;5009751;28;20974;-82
2022/07/10 09:58:07;;;;;;;3.60;0.87;;;26.20;88.20;;;;;;5010494;28;20550;-81
2022/07/10 10:00:37;;;;;;;4.53;1.60;;;26.80;84.00;;;;;;5009072;28;20468;-82
2022/07/10 10:03:08;;;;;;;4.67;1.40;;;24.80;86.30;;;;;;5010644;28;20440;-78
2022/07/10 10:05:42;;;;;;;6.43;1.33;;;22.80;90.00;;;;;;5011337;28;20444;-81
2022/07/10 10:08:16;;;;;;;6.10;1.37;;;21.70;91.10;;;;;;5004888;28;20545;-81
2022/07/10 10:10:49;;;;;;;2.40;1.33;;;21.30;94.50;;;;;;5010594;28;20491;-81
2022/07/10 10:13:23;;;;;;;1.97;1.37;;;21.60;93.90;;;;;;5015450;28;20498;-81
2022/07/10 10:15:51;;;;;;;1.03;0.87;;;23.80;92.90;;;;;;5014885;28;20444;-81
2022/07/10 10:18:25;;;;;;;2.17;1.00;;;23.90;90.20;;;;;;5015799;28;20425;-81
2022/07/10 10:20:53;;;;;;;1.77;1.30;;;22.20;91.00;;;;;;5018221;28;20914;-81
2022/07/10 10:23:21;;;;;;;1.37;0.90;;;21.50;91.60;;;;;;5019829;28;20980;-81
2022/07/10 10:25:48;;;;;;;1.93;1.03;;;21.40;93.20;;;;;;5018239;28;20994;-81
2022/07/10 10:28:15;;;;;;;1.63;1.17;;;21.30;92.60;;;;;;5015769;28;20417;-82
2022/07/10 10:30:44;;;;;;;5.60;0.90;;;20.90;92.60;;;;;;5015662;28;20471;-81
2022/07/10 10:33:34;;;;;;;1.23;0.50;;;19.80;92.50;;;;;;5013805;28;20512;-80
2022/07/10 10:36:00;;;;;;;1.43;0.90;;;19.70;94.10;;;;;;5007067;28;20887;-80
2022/07/10 10:38:45;;;;;;;1.63;0.97;;;19.70;93.60;;;;;;5017052;28;20460;-81
2022/07/10 10:41:31;;;;;;;7.90;1.10;;;19.70;94.00;;;;;;5015852;28;20996;-81
2022/07/10 10:44:10;;;;;;;1.10;0.73;;;20.00;93.80;;;;;;5016117;28;20437;-80
2022/07/10 10:47:05;;;;;;;2.03;0.80;;;20.30;94.10;;;;;;5014781;28;20429;-80
2022/07/10 10:49:51;;;;;;;1.67;0.80;;;20.70;93.60;;;;;;5014295;28;20472;-80
2022/07/10 10:52:17;;;;;;;1.03;0.70;;;20.40;93.20;;;;;;5019001;28;20448;-81
2022/07/10 10:55:00;;;;;;;6.17;2.00;;;19.80;93.00;;;;;;5017670;28;20446;-80
2022/07/10 10:57:31;;;;;;;1.13;1.03;;;19.40;93.60;;;;;;5017626;28;20475;-81
2022/07/10 10:59:59;;;;;;;2.20;1.37;;;19.70;95.00;;;;;;5021774;28;20452;-81
2022/07/10 11:02:29;;;;;;;0.90;0.57;;;19.90;93.50;;;;;;5020609;28;20445;-81
2022/07/10 11:05:19;;;;;;;1.23;0.60;;;20.60;93.90;;;;;;5018435;28;20753;-81
2022/07/10 11:07:57;;;;;;;1.07;0.90;;;21.30;90.10;;;;;;5021746;28;20440;-81
2022/07/10 11:10:33;;;;;;;0.97;0.70;;;21.30;90.40;;;;;;5019752;28;20496;-81
2022/07/10 11:13:07;;;;;;;4.00;0.90;;;21.20;91.30;;;;;;5018149;28;20428;-80
2022/07/10 11:15:38;;;;;;;0.77;0.60;;;21.10;92.10;;;;;;5017182;28;20978;-81
2022/07/10 11:18:11;;;;;;;0.93;0.83;;;21.50;91.60;;;;;;5016539;28;20457;-80
2022/07/10 11:20:44;;;;;;;1.40;1.30;;;21.40;91.40;;;;;;5019742;28;20466;-81
2022/07/10 11:23:10;;;;;;;7.03;1.90;;;;;;;;;;5001831;28;20437;-80
2022/07/10 11:26:01;;;;;;;0.87;0.70;;;22.10;89.80;;;;;;5008648;28;21038;-80
2022/07/10 11:28:41;;;;;;;3.70;0.80;;;22.30;89.20;;;;;;5013875;28;20745;-80
2022/07/10 11:31:07;;;;;;;2.70;1.33;;;21.40;86.50;;;;;;5011257;28;21110;-80
2022/07/10 11:33:42;;;;;;;2.00;0.67;;;21.00;88.10;;;;;;5013667;28;20433;-81
2022/07/10 11:36:15;;;;;;;1.17;0.50;;;21.60;90.40;;;;;;5017158;28;20223;-80
2022/07/10 11:38:42;;;;;;;0.73;0.67;;;21.60;87.10;;;;;;5013009;28;21108;-80
2022/07/10 11:41:21;;;;;;;3.13;0.90;;;21.60;87.60;;;;;;5022021;28;20449;-80
2022/07/10 11:43:59;;;;;;;1.93;0.80;;;21.70;90.10;;;;;;5019435;28;20441;-81
2022/07/10 11:46:31;;;;;;;1.63;0.60;;;21.40;89.80;;;;;;5018178;28;20448;-81
2022/07/10 11:48:57;;;;;;;2.40;0.87;;;21.70;91.00;;;;;;5015440;28;20513;-80
2022/07/10 11:51:32;;;;;;;0.73;0.63;;;21.90;88.40;;;;;;5026716;28;20441;-80
2022/07/10 11:54:13;;;;;;;1.67;0.90;;;21.80;87.30;;;;;;5019784;28;20443;-80
2022/07/10 11:56:51;;;;;;;2.83;1.10;;;21.70;86.10;;;;;;5027027;28;21117;-81
2022/07/10 11:59:18;;;;;;;1.07;0.90;;;21.70;86.20;;;;;;5017746;28;20515;-81
2022/07/10 12:01:48;;;;;;;3.20;0.80;;;21.70;87.80;;;;;;5018409;28;20437;-79
2022/07/10 12:04:16;;;;;;;0.90;0.43;;;22.20;88.10;;;;;;5016885;28;20433;-81
2022/07/10 12:06:46;;;;;;;0.63;0.63;;;21.90;86.50;;;;;;5022985;28;20536;-80
2022/07/10 12:09:18;;;;;;;2.87;0.70;;;21.60;83.70;;;;;;5020955;28;20519;-80
2022/07/10 12:11:57;;;;;;;3.90;0.83;;;21.60;88.90;;;;;;5021164;28;20949;-80
2022/07/10 12:14:22;;;;;;;0.83;0.60;;;21.60;88.40;;;;;;5017532;28;20431;-81
2022/07/10 12:16:53;;;;;;;0.70;0.60;;;21.20;87.50;;;;;;5018670;28;21298;-80
2022/07/10 12:19:22;;;;;;;1.07;0.77;;;20.70;88.90;;;;;;5015214;28;20226;-80
2022/07/10 12:21:49;;;;;;;0.80;0.80;;;20.80;89.40;;;;;;5025419;28;20840;-80
2022/07/10 12:24:21;;;;;;;0.90;0.77;;;21.20;91.20;;;;;;5016285;28;20434;-80
2022/07/10 12:26:48;;;;;;;0.70;0.53;;;21.40;89.90;;;;;;5017468;28;20439;-81
2022/07/10 12:29:23;;;;;;;0.53;0.40;;;21.20;87.10;;;;;;5018486;28;20463;-80
2022/07/10 12:31:50;;;;;;;0.80;0.60;;;21.50;90.70;;;;;;5017782;28;21076;-81
2022/07/10 12:34:17;;;;;;;3.07;0.90;;;22.20;89.20;;;;;;5019570;28;21040;-81
2022/07/10 12:36:52;;;;;;;0.93;0.83;;;22.30;84.30;;;;;;5025195;28;20460;-81
2022/07/10 12:39:23;;;;;;;0.73;0.60;;;22.50;83.10;;;;;;5021539;28;20568;-82
2022/07/10 12:42:04;;;;;;;2.73;0.73;;;22.30;81.80;;;;;;5023294;28;20428;-80
2022/07/10 12:44:40;;;;;;;1.80;0.57;;;22.20;81.70;;;;;;5026105;28;20536;-79
2022/07/10 12:47:09;;;;;;;0.83;0.80;;;21.80;82.30;;;;;;5018618;28;20465;-79
2022/07/10 12:50:08;;;;;;;3.63;1.10;;;21.30;83.50;;;;;;5017469;28;20487;-80
2022/07/10 12:52:35;;;;;;;3.03;0.67;;;20.80;84.30;;;;;;4989163;28;21027;-81
2022/07/10 12:55:21;;;;;;;12.03;1.07;;;20.90;83.80;;;;;;5020884;28;20467;-81